createdAt,value
2019-02-21T00:02:11.781Z,6.83
2019-02-21T00:04:40.240Z,6.90
2019-02-21T00:07:08.725Z,7.47
2019-02-21T00:09:37.205Z,6.20
2019-02-21T00:12:05.692Z,7.17
2019-02-21T00:14:34.153Z,7.13
2019-02-21T00:17:02.629Z,6.67
2019-02-21T00:19:31.083Z,7.93
2019-02-21T00:21:59.563Z,7.30
2019-02-21T00:24:28.027Z,7.33
2019-02-21T00:26:56.512Z,7.20
2019-02-21T00:29:24.986Z,6.97
2019-02-21T00:31:53.452Z,7.70
2019-02-21T00:34:21.922Z,7.17
2019-02-21T00:36:50.406Z,7.13
2019-02-21T00:39:18.929Z,6.30
2019-02-21T00:41:47.417Z,7.77
2019-02-21T00:44:15.878Z,6.97
2019-02-21T00:46:44.368Z,7.73
2019-02-21T00:49:12.827Z,7.80
2019-02-21T00:51:41.321Z,7.20
2019-02-21T00:54:09.805Z,6.90
2019-02-21T00:56:38.273Z,6.87
2019-02-21T00:59:06.735Z,7.90
2019-02-21T01:01:35.241Z,7.90
2019-02-21T01:04:03.699Z,7.73
2019-02-21T01:06:32.207Z,7.70
2019-02-21T01:09:00.667Z,7.57
2019-02-21T01:11:29.125Z,7.50
2019-02-21T01:13:57.602Z,7.43
2019-02-21T01:16:26.060Z,7.37
2019-02-21T01:18:54.542Z,7.23
2019-02-21T01:21:23.007Z,7.27
2019-02-21T01:23:51.502Z,7.23
2019-02-21T01:26:19.971Z,6.83
2019-02-21T01:28:48.467Z,7.30
2019-02-21T01:31:16.942Z,6.93
2019-02-21T01:33:45.417Z,6.37
2019-02-21T01:36:13.884Z,7.03
2019-02-21T01:38:42.458Z,6.93
2019-02-21T01:41:10.922Z,6.60
2019-02-21T01:43:39.425Z,6.23
2019-02-21T01:46:07.887Z,6.83
2019-02-21T01:48:36.375Z,6.50
2019-02-21T01:51:04.826Z,6.60
2019-02-21T01:53:33.311Z,7.17
2019-02-21T01:56:01.759Z,6.70
2019-02-21T01:58:30.244Z,6.67
2019-02-21T02:01:07.970Z,6.80
2019-02-21T02:03:28.999Z,7.47
2019-02-21T02:05:57.456Z,7.43
2019-02-21T02:08:25.938Z,6.90
2019-02-21T02:10:54.389Z,7.67
2019-02-21T02:13:24.925Z,7.20
2019-02-21T02:15:53.061Z,7.97
2019-02-21T02:18:21.545Z,7.27
2019-02-21T02:20:50.007Z,7.57
2019-02-21T02:23:18.508Z,8.03
2019-02-21T02:25:46.963Z,7.77
2019-02-21T02:28:15.414Z,8.23
2019-02-21T02:30:43.978Z,8.40
2019-02-21T02:33:12.451Z,7.90
2019-02-21T02:35:40.937Z,9.00
2019-02-21T02:38:09.394Z,8.37
2019-02-21T02:40:37.970Z,8.50
2019-02-21T02:43:06.477Z,9.17
2019-02-21T02:45:34.966Z,8.87
2019-02-21T02:48:03.455Z,9.13
2019-02-21T02:50:33.087Z,9.03
2019-02-21T02:53:01.563Z,9.00
2019-02-21T02:55:30.068Z,9.83
2019-02-21T02:57:58.539Z,10.07
2019-02-21T03:00:27.053Z,10.63
2019-02-21T03:02:55.571Z,11.33
2019-02-21T03:05:24.062Z,10.23
2019-02-21T03:07:52.556Z,11.60
2019-02-21T03:10:21.092Z,12.47
2019-02-21T03:12:49.573Z,12.57
2019-02-21T03:15:18.084Z,12.57
2019-02-21T03:17:46.568Z,12.00
2019-02-21T03:20:15.094Z,12.47
2019-02-21T03:22:43.565Z,12.73
2019-02-21T03:25:12.117Z,11.93
2019-02-21T03:27:40.592Z,13.00
2019-02-21T03:30:12.360Z,12.63
2019-02-21T03:32:41.166Z,13.00
2019-02-21T03:35:09.701Z,13.17
2019-02-21T03:37:38.191Z,13.00
2019-02-21T03:40:09.112Z,12.83
2019-02-21T03:42:37.587Z,14.23
2019-02-21T03:45:09.496Z,13.77
2019-02-21T03:47:37.982Z,14.17
2019-02-21T03:50:11.057Z,13.53
2019-02-21T03:52:39.528Z,14.47
2019-02-21T03:55:08.862Z,14.53
2019-02-21T03:57:37.469Z,14.80
2019-02-21T04:00:11.477Z,15.90
2019-02-21T04:02:40.023Z,15.63
2019-02-21T04:05:08.950Z,16.00
2019-02-21T04:07:37.429Z,16.33
2019-02-21T04:10:07.962Z,18.20
2019-02-21T04:12:36.412Z,17.77
2019-02-21T04:15:06.934Z,18.90
2019-02-21T04:17:35.483Z,18.30
2019-02-21T04:20:05.683Z,19.67
2019-02-21T04:22:34.173Z,19.27
2019-02-21T04:25:02.649Z,18.90
2019-02-21T04:27:31.121Z,19.90
2019-02-21T04:29:59.605Z,20.17
2019-02-21T04:32:28.089Z,19.53
2019-02-21T04:34:56.598Z,20.93
2019-02-21T04:37:25.056Z,19.53
2019-02-21T04:39:53.529Z,20.87
2019-02-21T04:42:22.010Z,18.73
2019-02-21T04:44:50.475Z,20.97
2019-02-21T04:47:18.984Z,21.00
2019-02-21T04:49:47.488Z,21.03
2019-02-21T04:52:15.975Z,21.10
2019-02-21T04:54:44.449Z,20.77
2019-02-21T04:57:12.930Z,20.80
2019-02-21T04:59:41.417Z,21.80
2019-02-21T05:02:09.896Z,21.47
2019-02-21T05:04:38.377Z,21.87
2019-02-21T05:07:06.869Z,22.50
2019-02-21T05:09:35.316Z,21.60
2019-02-21T05:12:03.820Z,22.60
2019-02-21T05:14:32.277Z,21.87
2019-02-21T05:17:00.829Z,23.10
2019-02-21T05:19:29.268Z,23.57
2019-02-21T05:21:57.755Z,23.83
2019-02-21T05:24:26.235Z,23.13
2019-02-21T05:26:56.353Z,23.47
2019-02-21T05:29:24.837Z,22.60
2019-02-21T05:32:00.962Z,24.37
2019-02-21T05:34:36.845Z,24.43
2019-02-21T05:37:16.114Z,23.40
2019-02-21T05:39:52.140Z,23.23
2019-02-21T05:42:22.284Z,23.93
2019-02-21T05:45:10.911Z,25.00
2019-02-21T05:47:43.262Z,23.87
2019-02-21T05:50:19.193Z,24.07
2019-02-21T05:53:01.623Z,24.30
2019-02-21T05:55:31.751Z,24.90
2019-02-21T05:58:01.902Z,25.00
2019-02-21T06:00:37.796Z,26.57
2019-02-21T06:03:07.943Z,24.77
2019-02-21T06:05:54.037Z,24.27
2019-02-21T06:08:40.294Z,24.23
2019-02-21T06:11:10.689Z,24.73
2019-02-21T06:13:46.443Z,24.67
2019-02-21T06:16:34.831Z,24.27
2019-02-21T06:19:07.505Z,24.50
2019-02-21T06:21:37.619Z,25.47
2019-02-21T06:24:19.798Z,24.70
2019-02-21T06:26:52.371Z,25.37
2019-02-21T06:29:22.791Z,24.23
2019-02-21T06:31:51.378Z,25.87
2019-02-21T06:34:19.885Z,24.27
2019-02-21T06:36:48.410Z,24.57
2019-02-21T06:39:16.861Z,24.77
2019-02-21T06:41:45.333Z,24.40
2019-02-21T06:44:13.830Z,24.23
2019-02-21T06:46:42.296Z,25.57
2019-02-21T06:49:10.795Z,25.40
2019-02-21T06:51:39.274Z,25.10
2019-02-21T06:54:07.757Z,25.37
2019-02-21T06:56:36.234Z,24.70
2019-02-21T06:59:04.728Z,24.23
2019-02-21T07:01:33.197Z,25.73
2019-02-21T07:04:02.015Z,24.73
2019-02-21T07:06:32.177Z,23.90
2019-02-21T07:09:00.944Z,24.43
2019-02-21T07:11:29.450Z,25.57
2019-02-21T07:13:57.924Z,24.00
2019-02-21T07:16:26.436Z,24.43
2019-02-21T07:18:54.867Z,23.53
2019-02-21T07:21:23.340Z,23.47
2019-02-21T07:23:51.858Z,23.80
2019-02-21T07:26:20.338Z,22.83
2019-02-21T07:28:48.818Z,24.07
2019-02-21T07:31:28.166Z,23.57
2019-02-21T07:33:48.392Z,22.30
2019-02-21T07:36:17.001Z,23.00
2019-02-21T07:38:45.454Z,23.07
2019-02-21T07:41:14.109Z,23.03
2019-02-21T07:43:42.606Z,23.47
2019-02-21T07:46:11.094Z,23.77
2019-02-21T07:48:39.645Z,21.97
2019-02-21T07:51:08.166Z,22.60
2019-02-21T07:53:36.654Z,22.33
2019-02-21T07:56:05.241Z,22.40
2019-02-21T07:58:33.708Z,22.00
2019-02-21T08:01:02.221Z,22.97
2019-02-21T08:03:43.446Z,22.33
2019-02-21T08:06:00.896Z,22.17
2019-02-21T08:08:32.256Z,22.63
2019-02-21T08:10:59.653Z,23.77
2019-02-21T08:13:28.116Z,22.20
2019-02-21T08:15:56.596Z,23.20
2019-02-21T08:18:25.081Z,23.43
2019-02-21T08:20:53.586Z,22.27
2019-02-21T08:23:22.040Z,22.67
2019-02-21T08:25:50.527Z,23.10
2019-02-21T08:28:19.006Z,22.80
2019-02-21T08:30:47.506Z,23.87
2019-02-21T08:33:17.626Z,22.73
2019-02-21T08:35:46.113Z,22.73
2019-02-21T08:38:14.613Z,24.20
2019-02-21T08:40:43.057Z,23.67
2019-02-21T08:43:11.581Z,23.00
2019-02-21T08:45:40.041Z,24.47
2019-02-21T08:48:08.527Z,22.30
2019-02-21T08:50:37.075Z,22.20
2019-02-21T08:53:05.586Z,23.13
2019-02-21T08:55:34.042Z,24.10
2019-02-21T08:58:02.523Z,22.37
2019-02-21T09:00:31.687Z,24.03
2019-02-21T09:03:00.543Z,24.67
2019-02-21T09:05:29.016Z,23.50
2019-02-21T09:07:57.647Z,23.00
2019-02-21T09:10:27.703Z,22.83
2019-02-21T09:12:56.440Z,23.63
2019-02-21T09:15:24.922Z,22.63
2019-02-21T09:17:54.335Z,22.90
2019-02-21T09:20:23.077Z,22.47
2019-02-21T09:22:51.591Z,22.30
2019-02-21T09:25:20.054Z,23.37
2019-02-21T09:27:48.558Z,23.70
2019-02-21T09:30:18.694Z,23.80
2019-02-21T09:32:47.232Z,22.87
2019-02-21T09:35:15.711Z,23.17
2019-02-21T09:37:44.208Z,22.77
2019-02-21T09:40:14.460Z,22.43
2019-02-21T09:42:42.911Z,22.97
2019-02-21T09:45:17.115Z,22.73
2019-02-21T09:47:45.615Z,26.65
2019-02-21T09:50:14.461Z,23.60
2019-02-21T09:52:43.014Z,21.87
2019-02-21T09:55:14.115Z,22.30
2019-02-21T09:57:42.617Z,21.07
2019-02-21T10:00:13.918Z,20.77
2019-02-21T10:02:42.419Z,21.33
2019-02-21T10:05:10.906Z,20.83
2019-02-21T10:07:39.397Z,21.40
2019-02-21T10:10:13.341Z,22.07
2019-02-21T10:12:41.829Z,21.13
2019-02-21T10:15:12.745Z,20.57
2019-02-21T10:17:41.329Z,20.73
2019-02-21T10:20:17.664Z,20.93
2019-02-21T10:22:46.168Z,19.97
2019-02-21T10:25:17.236Z,19.63
2019-02-21T10:27:45.786Z,19.50
2019-02-21T10:30:16.894Z,19.30
2019-02-21T10:32:45.386Z,18.83
2019-02-21T10:35:13.927Z,18.37
2019-02-21T10:37:42.426Z,18.73
2019-02-21T10:40:13.036Z,18.83
2019-02-21T10:42:41.619Z,18.57
2019-02-21T10:45:12.730Z,19.00
2019-02-21T10:47:41.254Z,17.80
2019-02-21T10:50:15.638Z,19.73
2019-02-21T10:52:44.148Z,18.33
2019-02-21T10:55:12.698Z,17.53
2019-02-21T10:57:41.335Z,17.60
2019-02-21T11:00:27.478Z,17.83
2019-02-21T11:02:56.067Z,17.20
2019-02-21T11:05:24.548Z,18.52
2019-02-21T11:07:53.124Z,17.30
2019-02-21T11:10:24.009Z,16.43
2019-02-21T11:12:52.524Z,16.73
2019-02-21T11:15:25.511Z,16.97
2019-02-21T11:17:54.353Z,17.40
2019-02-21T11:20:23.085Z,15.70
2019-02-21T11:22:51.589Z,15.53
2019-02-21T11:25:20.069Z,15.33
2019-02-21T11:27:48.638Z,14.47
2019-02-21T11:30:19.331Z,15.30
2019-02-21T11:32:47.823Z,15.30
2019-02-21T11:35:16.394Z,16.52
2019-02-21T11:37:47.078Z,15.53
2019-02-21T11:40:18.745Z,15.35
2019-02-21T11:42:47.226Z,14.73
2019-02-21T11:45:18.149Z,14.43
2019-02-21T11:47:46.752Z,13.50
2019-02-21T11:50:19.016Z,14.83
2019-02-21T11:52:47.486Z,13.10
2019-02-21T11:55:18.579Z,14.35
2019-02-21T11:57:47.226Z,14.07
2019-02-21T12:00:21.150Z,14.90
2019-02-21T12:02:49.769Z,14.75
2019-02-21T12:05:30.241Z,13.23
2019-02-21T12:07:48.470Z,12.97
2019-02-21T12:10:17.041Z,13.43
2019-02-21T12:12:45.522Z,12.73
2019-02-21T12:15:15.451Z,12.83
2019-02-21T12:17:44.001Z,13.10
2019-02-21T12:20:14.959Z,12.57
2019-02-21T12:22:43.443Z,13.17
2019-02-21T12:25:14.488Z,12.73
2019-02-21T12:27:42.967Z,13.00
2019-02-21T12:30:14.022Z,12.03
2019-02-21T12:32:42.570Z,12.80
2019-02-21T12:35:11.297Z,12.10
2019-02-21T12:37:39.770Z,13.62
2019-02-21T12:40:19.184Z,13.08
2019-02-21T12:42:47.682Z,12.43
2019-02-21T12:45:18.211Z,12.00
2019-02-21T12:47:52.960Z,12.45
2019-02-21T12:50:16.932Z,11.97
2019-02-21T12:52:45.407Z,12.20
2019-02-21T12:55:26.568Z,11.73
2019-02-21T12:57:44.873Z,12.23
2019-02-21T13:00:15.709Z,11.20
2019-02-21T13:02:44.183Z,12.00
2019-02-21T13:05:12.671Z,12.30
2019-02-21T13:07:41.130Z,11.73
2019-02-21T13:10:21.881Z,11.73
2019-02-21T13:12:50.351Z,11.30
2019-02-21T13:15:18.842Z,9.67
2019-02-21T13:17:47.333Z,10.10
2019-02-21T13:20:15.980Z,9.50
2019-02-21T13:22:44.630Z,9.30
2019-02-21T13:25:15.167Z,8.43
2019-02-21T13:27:43.648Z,7.97
2019-02-21T13:30:14.588Z,8.07
2019-02-21T13:32:43.063Z,7.73
2019-02-21T13:35:11.987Z,7.67
2019-02-21T13:37:40.461Z,7.80
2019-02-21T13:40:21.036Z,8.47
2019-02-21T13:42:48.464Z,8.10
2019-02-21T13:45:18.157Z,7.63
2019-02-21T13:47:46.735Z,7.50
2019-02-21T13:50:19.574Z,7.37
2019-02-21T13:52:48.101Z,7.27
2019-02-21T13:55:16.603Z,7.17
2019-02-21T13:57:45.085Z,8.10
2019-02-21T14:00:23.950Z,7.90
2019-02-21T14:02:52.439Z,7.90
2019-02-21T14:05:20.927Z,7.03
2019-02-21T14:07:49.440Z,7.67
2019-02-21T14:10:18.118Z,7.30
2019-02-21T14:12:46.591Z,7.73
2019-02-21T14:15:25.764Z,7.53
2019-02-21T14:17:54.213Z,7.67
2019-02-21T14:20:22.719Z,8.27
2019-02-21T14:22:51.180Z,8.10
2019-02-21T14:25:19.714Z,7.80
2019-02-21T14:27:48.187Z,8.20
2019-02-21T14:30:21.144Z,8.73
2019-02-21T14:32:49.583Z,8.20
2019-02-21T14:35:18.123Z,8.13
2019-02-21T14:37:46.610Z,8.00
2019-02-21T14:40:16.341Z,8.20
2019-02-21T14:42:44.810Z,8.53
2019-02-21T14:45:21.330Z,9.40
2019-02-21T14:47:49.820Z,10.03
2019-02-21T14:50:18.305Z,9.53
2019-02-21T14:52:46.806Z,9.80
2019-02-21T14:55:17.446Z,9.60
2019-02-21T14:57:45.982Z,9.60
2019-02-21T15:00:25.926Z,8.90
2019-02-21T15:02:54.473Z,9.90
2019-02-21T15:05:22.967Z,9.70
2019-02-21T15:07:51.451Z,9.60
2019-02-21T15:10:20.001Z,9.20
2019-02-21T15:12:48.487Z,9.67
2019-02-21T15:15:21.916Z,8.97
2019-02-21T15:17:49.703Z,9.80
2019-02-21T15:20:18.407Z,9.87
2019-02-21T15:22:46.919Z,10.13
2019-02-21T15:25:15.463Z,9.10
2019-02-21T15:27:44.193Z,9.35
2019-02-21T15:30:25.983Z,9.20
2019-02-21T15:32:54.486Z,9.97
2019-02-21T15:35:22.950Z,9.77
2019-02-21T15:37:51.455Z,10.23
2019-02-21T15:40:19.939Z,10.07
2019-02-21T15:42:48.453Z,10.80
2019-02-21T15:45:27.721Z,10.40
2019-02-21T15:47:56.226Z,10.63
2019-02-21T15:50:24.696Z,10.57
2019-02-21T15:52:55.704Z,10.20
2019-02-21T15:55:24.158Z,10.13
2019-02-21T15:58:03.246Z,10.97
2019-02-21T16:00:24.381Z,10.03
2019-02-21T16:02:52.863Z,9.80
2019-02-21T16:05:21.368Z,9.40
2019-02-21T16:07:49.856Z,10.33
2019-02-21T16:10:28.068Z,10.00
2019-02-21T16:12:57.130Z,10.07
2019-02-21T16:15:25.928Z,10.53
2019-02-21T16:17:54.439Z,10.30
2019-02-21T16:20:23.014Z,9.77
2019-02-21T16:22:51.505Z,9.50
2019-02-21T16:25:24.765Z,10.13
2019-02-21T16:27:55.313Z,10.00
2019-02-21T16:30:23.574Z,9.77
2019-02-21T16:32:52.068Z,9.57
2019-02-21T16:35:20.530Z,9.30
2019-02-21T16:37:49.033Z,9.77
2019-02-21T16:40:19.050Z,10.13
2019-02-21T16:42:47.555Z,8.90
2019-02-21T16:45:17.767Z,9.60
2019-02-21T16:47:46.320Z,10.57
2019-02-21T16:50:15.379Z,9.57
2019-02-21T16:52:44.198Z,10.17
2019-02-21T16:55:23.944Z,9.83
2019-02-21T16:57:52.416Z,9.77
2019-02-21T17:00:22.893Z,10.00
2019-02-21T17:02:51.424Z,9.77
2019-02-21T17:05:20.067Z,10.10
2019-02-21T17:07:48.556Z,9.80
2019-02-21T17:10:17.672Z,11.37
2019-02-21T17:12:46.176Z,10.43
2019-02-21T17:15:16.817Z,9.63
2019-02-21T17:17:45.343Z,10.63
2019-02-21T17:20:19.231Z,10.20
2019-02-21T17:22:47.733Z,9.57
2019-02-21T17:25:16.583Z,10.43
2019-02-21T17:27:46.123Z,10.80
2019-02-21T17:30:16.366Z,10.13
2019-02-21T17:32:44.967Z,11.35
2019-02-21T17:35:13.882Z,10.53
2019-02-21T17:37:42.365Z,10.23
2019-02-21T17:40:19.580Z,11.90
2019-02-21T17:42:48.070Z,10.17
2019-02-21T17:45:16.711Z,10.53
2019-02-21T17:47:45.201Z,10.10
2019-02-21T17:50:20.283Z,10.33
2019-02-21T17:52:50.350Z,11.57
2019-02-21T17:55:19.248Z,12.67
2019-02-21T17:57:47.872Z,10.67
2019-02-21T18:00:20.793Z,12.20
2019-02-21T18:02:49.301Z,11.60
2019-02-21T18:05:17.778Z,14.37
2019-02-21T18:07:46.272Z,13.10
2019-02-21T18:10:16.394Z,12.73
2019-02-21T18:12:44.917Z,13.50
2019-02-21T18:15:15.582Z,13.60
2019-02-21T18:17:44.052Z,14.07
2019-02-21T18:20:16.455Z,13.47
2019-02-21T18:22:45.474Z,13.17
2019-02-21T18:25:29.469Z,15.70
2019-02-21T18:27:57.969Z,15.93
2019-02-21T18:30:26.451Z,15.53
2019-02-21T18:32:54.920Z,15.87
2019-02-21T18:35:23.470Z,16.10
2019-02-21T18:37:52.015Z,14.97
2019-02-21T18:40:22.559Z,16.30
2019-02-21T18:42:51.044Z,16.70
2019-02-21T18:45:19.543Z,17.30
2019-02-21T18:47:48.019Z,17.03
2019-02-21T18:50:16.522Z,17.30
2019-02-21T18:52:44.990Z,19.90
2019-02-21T18:55:13.577Z,18.40
2019-02-21T18:57:42.064Z,18.03
2019-02-21T19:00:24.702Z,18.70
2019-02-21T19:02:53.161Z,21.00
2019-02-21T19:05:22.125Z,20.10
2019-02-21T19:08:00.446Z,20.60
2019-02-21T19:10:21.770Z,20.27
2019-02-21T19:12:50.264Z,20.53
2019-02-21T19:15:20.091Z,20.07
2019-02-21T19:17:48.580Z,20.30
2019-02-21T19:20:21.358Z,20.30
2019-02-21T19:22:50.178Z,21.43
2019-02-21T19:25:18.897Z,20.97
2019-02-21T19:27:47.379Z,21.57
2019-02-21T19:30:36.887Z,21.10
2019-02-21T19:33:05.478Z,20.60
2019-02-21T19:35:33.986Z,24.07
2019-02-21T19:38:10.341Z,22.40
2019-02-21T19:40:32.798Z,22.20
2019-02-21T19:43:01.366Z,24.43
2019-02-21T19:45:29.928Z,23.47
2019-02-21T19:47:58.438Z,23.53
2019-02-21T19:50:26.995Z,25.37
2019-02-21T19:52:55.476Z,26.10
2019-02-21T19:55:24.037Z,25.40
2019-02-21T19:57:52.490Z,24.40
2019-02-21T20:00:30.615Z,23.63
2019-02-21T20:02:59.097Z,24.97
2019-02-21T20:05:27.852Z,24.70
2019-02-21T20:07:56.406Z,26.40
2019-02-21T20:10:26.389Z,25.60
2019-02-21T20:12:56.505Z,25.93
2019-02-21T20:15:25.005Z,25.23
2019-02-21T20:17:53.483Z,25.77
2019-02-21T20:20:24.707Z,26.93
2019-02-21T20:22:53.267Z,27.63
2019-02-21T20:25:21.812Z,27.47
2019-02-21T20:27:50.352Z,27.60
2019-02-21T20:30:20.450Z,28.63
2019-02-21T20:32:48.926Z,29.73
2019-02-21T20:35:17.447Z,29.80
2019-02-21T20:37:45.916Z,30.33
2019-02-21T20:40:14.550Z,29.57
2019-02-21T20:42:43.150Z,29.83
2019-02-21T20:45:16.077Z,32.43
2019-02-21T20:47:44.528Z,30.97
2019-02-21T20:50:13.299Z,31.17
2019-02-21T20:52:41.861Z,30.97
2019-02-21T20:55:11.457Z,31.20
2019-02-21T20:57:39.935Z,31.53
2019-02-21T21:00:11.375Z,31.10
2019-02-21T21:02:39.842Z,30.93
2019-02-21T21:05:08.579Z,29.80
2019-02-21T21:07:37.038Z,29.87
2019-02-21T21:10:09.331Z,30.07
2019-02-21T21:12:37.817Z,29.97
2019-02-21T21:15:09.585Z,29.57
2019-02-21T21:17:38.313Z,30.13
2019-02-21T21:20:16.569Z,30.60
2019-02-21T21:22:39.733Z,29.47
2019-02-21T21:25:10.944Z,29.73
2019-02-21T21:27:39.418Z,30.10
2019-02-21T21:30:10.664Z,30.23
2019-02-21T21:32:39.146Z,31.87
2019-02-21T21:35:07.895Z,30.67
2019-02-21T21:37:36.374Z,29.37
2019-02-21T21:40:16.221Z,30.63
2019-02-21T21:42:44.765Z,31.20
2019-02-21T21:45:17.777Z,30.47
2019-02-21T21:47:46.260Z,32.03
2019-02-21T21:50:16.885Z,30.00
2019-02-21T21:52:45.399Z,31.43
2019-02-21T21:55:14.327Z,32.00
2019-02-21T21:57:42.852Z,30.47
2019-02-21T22:00:22.538Z,33.00
2019-02-21T22:02:51.277Z,31.80
2019-02-21T22:05:20.208Z,31.73
2019-02-21T22:07:49.521Z,31.60
2019-02-21T22:10:19.854Z,32.37
2019-02-21T22:12:48.334Z,32.23
2019-02-21T22:15:20.923Z,32.67
2019-02-21T22:17:49.397Z,32.33
2019-02-21T22:20:17.881Z,33.67
2019-02-21T22:22:46.359Z,29.63
2019-02-21T22:25:15.119Z,31.07
2019-02-21T22:27:43.598Z,29.90
2019-02-21T22:30:15.143Z,30.63
2019-02-21T22:32:43.660Z,30.53
2019-02-21T22:35:12.239Z,34.33
2019-02-21T22:37:40.720Z,28.00
2019-02-21T22:40:11.628Z,29.73
2019-02-21T22:42:40.122Z,27.97
2019-02-21T22:45:09.943Z,27.43
2019-02-21T22:47:38.446Z,26.43
2019-02-21T22:50:10.267Z,25.07
2019-02-21T22:52:38.760Z,24.93
2019-02-21T22:55:10.187Z,26.37
2019-02-21T22:57:38.476Z,27.23
2019-02-21T23:00:32.952Z,25.20
2019-02-21T23:03:02.081Z,24.67
2019-02-21T23:05:51.411Z,22.73
2019-02-21T23:08:28.315Z,22.33
2019-02-21T23:10:56.804Z,21.57
2019-02-21T23:13:25.308Z,22.40
2019-02-21T23:15:53.792Z,22.13
2019-02-21T23:18:22.322Z,22.10
2019-02-21T23:20:50.783Z,21.63
2019-02-21T23:23:19.284Z,22.13
2019-02-21T23:25:47.768Z,20.60
2019-02-21T23:28:16.282Z,21.47
2019-02-21T23:30:44.814Z,22.60
2019-02-21T23:33:13.337Z,21.13
2019-02-21T23:35:41.805Z,19.50
2019-02-21T23:38:10.307Z,19.57
2019-02-21T23:40:38.788Z,17.07
2019-02-21T23:43:07.305Z,17.07
2019-02-21T23:45:35.775Z,16.80
2019-02-21T23:48:04.361Z,15.23
2019-02-21T23:50:32.833Z,16.57
2019-02-21T23:53:01.337Z,15.87
2019-02-21T23:55:29.808Z,14.63
2019-02-21T23:57:58.296Z,15.87
